sensor_id;sensor_type;location;lat;lon;timestamp;temperature;humidity
16102;DHT22;56411;52.964;10.540;2023-04-06T00:03:40;-1.80;99.90
16102;DHT22;56411;52.964;10.540;2023-04-06T00:06:23;-1.90;99.90
16102;DHT22;56411;52.964;10.540;2023-04-06T00:08:59;-2.00;99.90
16102;DHT22;56411;52.964;10.540;2023-04-06T00:12:06;-2.00;99.90
16102;DHT22;56411;52.964;10.540;2023-04-06T00:15:19;-2.00;99.90
16102;DHT22;56411;52.964;10.540;2023-04-06T00:18:27;-2.00;99.90
16102;DHT22;56411;52.964;10.540;2023-04-06T00:21:28;-2.00;99.90
16102;DHT22;56411;52.964;10.540;2023-04-06T00:24:57;-2.10;99.90
16102;DHT22;56411;52.964;10.540;2023-04-06T00:27:47;-2.20;99.90
16102;DHT22;56411;52.964;10.540;2023-04-06T00:33:39;-2.00;99.90
16102;DHT22;56411;52.964;10.540;2023-04-06T00:56:31;-1.90;99.90
16102;DHT22;56411;52.964;10.540;2023-04-06T00:59:18;-2.00;99.90
16102;DHT22;56411;52.964;10.540;2023-04-06T01:02:02;-2.00;99.90
16102;DHT22;56411;52.964;10.540;2023-04-06T01:04:49;-1.80;99.90
16102;DHT22;56411;52.964;10.540;2023-04-06T01:07:28;-1.90;99.90
16102;DHT22;56411;52.964;10.540;2023-04-06T01:10:09;-1.90;99.90
16102;DHT22;56411;52.964;10.540;2023-04-06T01:12:51;-2.00;99.90
16102;DHT22;56411;52.964;10.540;2023-04-06T01:15:23;-2.00;99.90
16102;DHT22;56411;52.964;10.540;2023-04-06T01:17:51;-2.20;99.90
16102;DHT22;56411;52.964;10.540;2023-04-06T01:20:19;-2.20;99.90
16102;DHT22;56411;52.964;10.540;2023-04-06T01:22:54;-2.20;99.90
16102;DHT22;56411;52.964;10.540;2023-04-06T01:25:24;-2.20;99.90
16102;DHT22;56411;52.964;10.540;2023-04-06T01:27:51;-2.20;99.90
16102;DHT22;56411;52.964;10.540;2023-04-06T01:30:19;-2.20;99.90
16102;DHT22;56411;52.964;10.540;2023-04-06T01:32:50;-2.30;99.90
16102;DHT22;56411;52.964;10.540;2023-04-06T01:35:20;-2.40;99.90
16102;DHT22;56411;52.964;10.540;2023-04-06T01:37:54;-2.50;99.90
16102;DHT22;56411;52.964;10.540;2023-04-06T01:40:38;-2.50;99.90
16102;DHT22;56411;52.964;10.540;2023-04-06T01:43:12;-2.60;99.90
16102;DHT22;56411;52.964;10.540;2023-04-06T01:45:46;-2.60;99.90
16102;DHT22;56411;52.964;10.540;2023-04-06T01:48:20;-2.60;99.90
16102;DHT22;56411;52.964;10.540;2023-04-06T01:50:55;-2.70;99.90
16102;DHT22;56411;52.964;10.540;2023-04-06T01:53:32;-2.80;99.90
16102;DHT22;56411;52.964;10.540;2023-04-06T01:56:00;-2.80;99.90
16102;DHT22;56411;52.964;10.540;2023-04-06T01:58:27;-2.80;99.90
16102;DHT22;56411;52.964;10.540;2023-04-06T02:00:57;-2.90;99.90
16102;DHT22;56411;52.964;10.540;2023-04-06T02:03:26;-2.90;99.90
16102;DHT22;56411;52.964;10.540;2023-04-06T02:05:54;-2.90;99.90
16102;DHT22;56411;52.964;10.540;2023-04-06T02:08:24;-2.90;99.90
16102;DHT22;56411;52.964;10.540;2023-04-06T02:10:56;-2.90;99.90
16102;DHT22;56411;52.964;10.540;2023-04-06T02:13:26;-2.90;99.90
16102;DHT22;56411;52.964;10.540;2023-04-06T02:15:57;-3.00;99.90
16102;DHT22;56411;52.964;10.540;2023-04-06T02:18:27;-3.00;99.90
16102;DHT22;56411;52.964;10.540;2023-04-06T02:21:16;-3.00;99.90
16102;DHT22;56411;52.964;10.540;2023-04-06T02:23:58;-3.10;99.90
16102;DHT22;56411;52.964;10.540;2023-04-06T02:26:42;-3.10;99.90
16102;DHT22;56411;52.964;10.540;2023-04-06T02:29:13;-3.20;99.90
16102;DHT22;56411;52.964;10.540;2023-04-06T02:31:44;-3.20;99.90
16102;DHT22;56411;52.964;10.540;2023-04-06T02:34:11;-3.30;99.90
16102;DHT22;56411;52.964;10.540;2023-04-06T02:36:43;-3.30;99.90
16102;DHT22;56411;52.964;10.540;2023-04-06T02:39:11;-3.30;99.90
16102;DHT22;56411;52.964;10.540;2023-04-06T02:41:40;-3.30;99.90
16102;DHT22;56411;52.964;10.540;2023-04-06T02:44:11;-3.30;99.90
16102;DHT22;56411;52.964;10.540;2023-04-06T02:46:43;-3.30;99.90
16102;DHT22;56411;52.964;10.540;2023-04-06T02:49:13;-3.30;99.90
16102;DHT22;56411;52.964;10.540;2023-04-06T02:51:46;-3.30;99.90
16102;DHT22;56411;52.964;10.540;2023-04-06T02:54:24;-3.20;99.90
16102;DHT22;56411;52.964;10.540;2023-04-06T02:56:59;-3.20;99.90
16102;DHT22;56411;52.964;10.540;2023-04-06T03:00:21;-3.20;99.90
16102;DHT22;56411;52.964;10.540;2023-04-06T03:02:53;-3.10;99.90
16102;DHT22;56411;52.964;10.540;2023-04-06T03:05:41;-3.10;99.90
16102;DHT22;56411;52.964;10.540;2023-04-06T03:08:16;-3.10;99.90
16102;DHT22;56411;52.964;10.540;2023-04-06T03:10:48;-3.00;99.90
16102;DHT22;56411;52.964;10.540;2023-04-06T03:13:22;-3.10;99.90
16102;DHT22;56411;52.964;10.540;2023-04-06T03:16:00;-3.00;99.90
16102;DHT22;56411;52.964;10.540;2023-04-06T03:18:40;-2.90;99.90
16102;DHT22;56411;52.964;10.540;2023-04-06T03:21:10;-3.00;99.90
16102;DHT22;56411;52.964;10.540;2023-04-06T03:23:37;-3.10;99.90
16102;DHT22;56411;52.964;10.540;2023-04-06T03:26:05;-3.20;99.90
16102;DHT22;56411;52.964;10.540;2023-04-06T03:28:32;-3.30;99.90
16102;DHT22;56411;52.964;10.540;2023-04-06T03:31:02;-3.30;99.90
16102;DHT22;56411;52.964;10.540;2023-04-06T03:33:29;-3.30;99.90
16102;DHT22;56411;52.964;10.540;2023-04-06T03:35:57;-3.40;99.90
16102;DHT22;56411;52.964;10.540;2023-04-06T03:38:29;-3.40;99.90
16102;DHT22;56411;52.964;10.540;2023-04-06T03:41:03;-3.40;99.90
16102;DHT22;56411;52.964;10.540;2023-04-06T03:43:31;-3.40;99.90
16102;DHT22;56411;52.964;10.540;2023-04-06T03:45:58;-3.50;99.90
16102;DHT22;56411;52.964;10.540;2023-04-06T03:48:27;-3.60;99.90
16102;DHT22;56411;52.964;10.540;2023-04-06T03:50:54;-3.60;99.90
16102;DHT22;56411;52.964;10.540;2023-04-06T03:53:32;-3.70;99.90
16102;DHT22;56411;52.964;10.540;2023-04-06T03:56:03;-3.60;99.90
16102;DHT22;56411;52.964;10.540;2023-04-06T03:58:35;-3.60;99.90
16102;DHT22;56411;52.964;10.540;2023-04-06T04:01:06;-3.70;99.90
16102;DHT22;56411;52.964;10.540;2023-04-06T04:03:39;-3.70;99.90
16102;DHT22;56411;52.964;10.540;2023-04-06T04:06:09;-3.70;99.90
16102;DHT22;56411;52.964;10.540;2023-04-06T04:08:37;-3.70;99.90
16102;DHT22;56411;52.964;10.540;2023-04-06T04:11:04;-3.70;99.90
16102;DHT22;56411;52.964;10.540;2023-04-06T04:13:31;-3.60;99.90
16102;DHT22;56411;52.964;10.540;2023-04-06T04:16:01;-3.50;99.90
16102;DHT22;56411;52.964;10.540;2023-04-06T04:18:28;-3.60;99.90
16102;DHT22;56411;52.964;10.540;2023-04-06T04:20:56;-3.70;99.90
16102;DHT22;56411;52.964;10.540;2023-04-06T04:23:23;-3.80;99.90
16102;DHT22;56411;52.964;10.540;2023-04-06T04:25:51;-3.80;99.90
16102;DHT22;56411;52.964;10.540;2023-04-06T04:28:18;-3.80;99.90
16102;DHT22;56411;52.964;10.540;2023-04-06T04:30:46;-3.80;99.90
16102;DHT22;56411;52.964;10.540;2023-04-06T04:33:14;-3.80;99.90
16102;DHT22;56411;52.964;10.540;2023-04-06T04:35:41;-3.80;99.90
16102;DHT22;56411;52.964;10.540;2023-04-06T04:38:10;-3.90;99.90
16102;DHT22;56411;52.964;10.540;2023-04-06T04:40:49;-3.90;99.90
16102;DHT22;56411;52.964;10.540;2023-04-06T04:43:54;-3.90;99.90
16102;DHT22;56411;52.964;10.540;2023-04-06T04:46:32;-3.80;99.90
16102;DHT22;56411;52.964;10.540;2023-04-06T04:48:59;-3.70;99.90
16102;DHT22;56411;52.964;10.540;2023-04-06T04:51:27;-3.70;99.90
16102;DHT22;56411;52.964;10.540;2023-04-06T04:53:59;-3.70;99.90
16102;DHT22;56411;52.964;10.540;2023-04-06T04:56:26;-3.80;99.90
16102;DHT22;56411;52.964;10.540;2023-04-06T04:58:55;-3.70;99.90
16102;DHT22;56411;52.964;10.540;2023-04-06T05:01:22;-3.80;99.90
16102;DHT22;56411;52.964;10.540;2023-04-06T05:03:50;-3.80;99.90
16102;DHT22;56411;52.964;10.540;2023-04-06T05:06:17;-3.80;99.90
16102;DHT22;56411;52.964;10.540;2023-04-06T05:08:44;-3.70;99.90
16102;DHT22;56411;52.964;10.540;2023-04-06T05:11:13;-3.70;99.90
16102;DHT22;56411;52.964;10.540;2023-04-06T05:13:40;-3.70;99.90
16102;DHT22;56411;52.964;10.540;2023-04-06T05:16:07;-3.70;99.90
16102;DHT22;56411;52.964;10.540;2023-04-06T05:18:34;-3.50;99.90
16102;DHT22;56411;52.964;10.540;2023-04-06T05:21:01;-3.50;99.90
16102;DHT22;56411;52.964;10.540;2023-04-06T05:23:28;-3.40;99.90
16102;DHT22;56411;52.964;10.540;2023-04-06T05:25:56;-3.40;99.90
16102;DHT22;56411;52.964;10.540;2023-04-06T05:28:24;-3.40;99.90
16102;DHT22;56411;52.964;10.540;2023-04-06T05:30:52;-3.20;99.90
16102;DHT22;56411;52.964;10.540;2023-04-06T05:33:20;-3.20;99.90
16102;DHT22;56411;52.964;10.540;2023-04-06T05:35:47;-3.10;99.90
16102;DHT22;56411;52.964;10.540;2023-04-06T05:38:14;-3.00;99.90
16102;DHT22;56411;52.964;10.540;2023-04-06T05:40:42;-2.80;99.90
16102;DHT22;56411;52.964;10.540;2023-04-06T05:43:09;-2.70;99.90
16102;DHT22;56411;52.964;10.540;2023-04-06T05:45:38;-2.70;99.90
16102;DHT22;56411;52.964;10.540;2023-04-06T05:48:05;-2.50;99.90
16102;DHT22;56411;52.964;10.540;2023-04-06T05:50:33;-2.40;99.90
16102;DHT22;56411;52.964;10.540;2023-04-06T05:53:00;-2.30;99.90
16102;DHT22;56411;52.964;10.540;2023-04-06T05:55:28;-2.20;99.90
16102;DHT22;56411;52.964;10.540;2023-04-06T05:57:55;-2.20;99.90
16102;DHT22;56411;52.964;10.540;2023-04-06T06:00:24;-2.10;99.90
16102;DHT22;56411;52.964;10.540;2023-04-06T06:02:53;-2.00;99.90
16102;DHT22;56411;52.964;10.540;2023-04-06T06:05:20;-1.90;99.90
16102;DHT22;56411;52.964;10.540;2023-04-06T06:07:48;-1.70;99.90
16102;DHT22;56411;52.964;10.540;2023-04-06T06:10:15;-1.60;99.90
16102;DHT22;56411;52.964;10.540;2023-04-06T06:12:42;-1.60;99.90
16102;DHT22;56411;52.964;10.540;2023-04-06T06:15:11;-1.50;99.90
16102;DHT22;56411;52.964;10.540;2023-04-06T06:17:38;-1.40;99.90
16102;DHT22;56411;52.964;10.540;2023-04-06T06:20:09;-1.30;99.90
16102;DHT22;56411;52.964;10.540;2023-04-06T06:22:37;-1.20;99.90
16102;DHT22;56411;52.964;10.540;2023-04-06T06:25:06;-1.10;99.90
16102;DHT22;56411;52.964;10.540;2023-04-06T06:27:33;-0.90;99.90
16102;DHT22;56411;52.964;10.540;2023-04-06T06:30:00;-0.80;99.90
16102;DHT22;56411;52.964;10.540;2023-04-06T06:32:27;-0.70;99.90
16102;DHT22;56411;52.964;10.540;2023-04-06T06:34:55;-0.50;99.90
16102;DHT22;56411;52.964;10.540;2023-04-06T06:37:24;-0.50;99.90
16102;DHT22;56411;52.964;10.540;2023-04-06T06:39:51;-0.40;99.90
16102;DHT22;56411;52.964;10.540;2023-04-06T06:42:18;-0.30;99.90
16102;DHT22;56411;52.964;10.540;2023-04-06T06:44:45;-0.20;99.90
16102;DHT22;56411;52.964;10.540;2023-04-06T06:47:13;0.00;99.90
16102;DHT22;56411;52.964;10.540;2023-04-06T06:49:40;0.10;99.90
16102;DHT22;56411;52.964;10.540;2023-04-06T06:52:07;0.20;99.90
16102;DHT22;56411;52.964;10.540;2023-04-06T06:54:36;0.30;99.90
16102;DHT22;56411;52.964;10.540;2023-04-06T06:57:04;0.60;99.90
16102;DHT22;56411;52.964;10.540;2023-04-06T06:59:31;0.70;99.90
16102;DHT22;56411;52.964;10.540;2023-04-06T07:01:58;0.80;99.90
16102;DHT22;56411;52.964;10.540;2023-04-06T07:04:26;0.80;99.90
16102;DHT22;56411;52.964;10.540;2023-04-06T07:06:53;0.90;99.90
16102;DHT22;56411;52.964;10.540;2023-04-06T07:09:20;1.00;99.90
16102;DHT22;56411;52.964;10.540;2023-04-06T07:11:49;1.10;99.90
16102;DHT22;56411;52.964;10.540;2023-04-06T07:14:16;1.20;99.90
16102;DHT22;56411;52.964;10.540;2023-04-06T07:16:44;1.30;99.90
16102;DHT22;56411;52.964;10.540;2023-04-06T07:19:12;1.40;99.90
16102;DHT22;56411;52.964;10.540;2023-04-06T07:21:41;1.50;99.90
16102;DHT22;56411;52.964;10.540;2023-04-06T07:24:08;1.60;99.90
16102;DHT22;56411;52.964;10.540;2023-04-06T07:26:36;1.90;99.90
16102;DHT22;56411;52.964;10.540;2023-04-06T07:29:07;2.00;99.90
16102;DHT22;56411;52.964;10.540;2023-04-06T07:31:34;2.10;99.90
16102;DHT22;56411;52.964;10.540;2023-04-06T07:34:02;2.30;99.90
16102;DHT22;56411;52.964;10.540;2023-04-06T07:36:29;2.40;99.90
16102;DHT22;56411;52.964;10.540;2023-04-06T07:38:56;2.60;99.90
16102;DHT22;56411;52.964;10.540;2023-04-06T07:41:23;2.70;99.90
16102;DHT22;56411;52.964;10.540;2023-04-06T07:43:51;2.90;99.90
16102;DHT22;56411;52.964;10.540;2023-04-06T07:46:20;3.10;99.90
16102;DHT22;56411;52.964;10.540;2023-04-06T07:48:47;3.30;99.90
16102;DHT22;56411;52.964;10.540;2023-04-06T07:51:16;3.40;99.90
16102;DHT22;56411;52.964;10.540;2023-04-06T07:53:44;3.60;99.90
16102;DHT22;56411;52.964;10.540;2023-04-06T07:56:11;3.80;99.90
16102;DHT22;56411;52.964;10.540;2023-04-06T07:58:40;4.00;99.90
16102;DHT22;56411;52.964;10.540;2023-04-06T08:01:08;4.10;99.90
16102;DHT22;56411;52.964;10.540;2023-04-06T08:03:36;4.30;99.90
16102;DHT22;56411;52.964;10.540;2023-04-06T08:06:04;4.50;99.90
16102;DHT22;56411;52.964;10.540;2023-04-06T08:08:32;4.70;99.90
16102;DHT22;56411;52.964;10.540;2023-04-06T08:10:59;4.90;99.90
16102;DHT22;56411;52.964;10.540;2023-04-06T08:13:28;5.10;99.90
16102;DHT22;56411;52.964;10.540;2023-04-06T08:15:56;5.20;99.90
16102;DHT22;56411;52.964;10.540;2023-04-06T08:18:23;5.30;99.90
16102;DHT22;56411;52.964;10.540;2023-04-06T08:20:54;5.40;99.90
16102;DHT22;56411;52.964;10.540;2023-04-06T08:23:21;5.60;99.90
16102;DHT22;56411;52.964;10.540;2023-04-06T08:25:48;5.80;99.90
16102;DHT22;56411;52.964;10.540;2023-04-06T08:28:16;6.00;99.90
16102;DHT22;56411;52.964;10.540;2023-04-06T08:30:45;6.10;99.90
16102;DHT22;56411;52.964;10.540;2023-04-06T08:33:13;6.20;99.90
16102;DHT22;56411;52.964;10.540;2023-04-06T08:35:41;6.40;99.90
16102;DHT22;56411;52.964;10.540;2023-04-06T08:38:10;6.50;99.90
16102;DHT22;56411;52.964;10.540;2023-04-06T08:40:37;6.70;99.90
16102;DHT22;56411;52.964;10.540;2023-04-06T08:43:09;6.80;99.90
16102;DHT22;56411;52.964;10.540;2023-04-06T08:45:38;6.90;99.90
16102;DHT22;56411;52.964;10.540;2023-04-06T08:48:06;7.00;99.90
16102;DHT22;56411;52.964;10.540;2023-04-06T08:50:34;7.10;99.90
16102;DHT22;56411;52.964;10.540;2023-04-06T08:53:01;7.20;99.90
16102;DHT22;56411;52.964;10.540;2023-04-06T08:55:31;7.30;99.90
16102;DHT22;56411;52.964;10.540;2023-04-06T08:57:59;7.40;99.90
16102;DHT22;56411;52.964;10.540;2023-04-06T09:00:30;7.50;99.90
16102;DHT22;56411;52.964;10.540;2023-04-06T09:02:58;7.50;99.90
16102;DHT22;56411;52.964;10.540;2023-04-06T09:05:26;7.60;99.90
16102;DHT22;56411;52.964;10.540;2023-04-06T09:07:54;7.80;99.90
16102;DHT22;56411;52.964;10.540;2023-04-06T09:10:21;7.80;99.90
16102;DHT22;56411;52.964;10.540;2023-04-06T09:13:03;7.80;99.90
16102;DHT22;56411;52.964;10.540;2023-04-06T09:15:35;7.90;99.90
16102;DHT22;56411;52.964;10.540;2023-04-06T09:18:07;7.90;99.90
16102;DHT22;56411;52.964;10.540;2023-04-06T09:20:35;8.00;99.90
16102;DHT22;56411;52.964;10.540;2023-04-06T09:23:03;8.10;99.90
16102;DHT22;56411;52.964;10.540;2023-04-06T09:25:30;8.20;99.90
16102;DHT22;56411;52.964;10.540;2023-04-06T09:28:04;8.30;99.90
16102;DHT22;56411;52.964;10.540;2023-04-06T09:30:32;8.40;99.90
16102;DHT22;56411;52.964;10.540;2023-04-06T09:33:01;8.50;99.90
16102;DHT22;56411;52.964;10.540;2023-04-06T09:35:28;8.50;99.90
16102;DHT22;56411;52.964;10.540;2023-04-06T09:37:58;8.60;99.90
16102;DHT22;56411;52.964;10.540;2023-04-06T09:40:25;8.70;99.90
16102;DHT22;56411;52.964;10.540;2023-04-06T09:42:54;8.70;99.90
16102;DHT22;56411;52.964;10.540;2023-04-06T09:45:26;8.80;99.90
16102;DHT22;56411;52.964;10.540;2023-04-06T09:47:54;8.90;99.90
16102;DHT22;56411;52.964;10.540;2023-04-06T09:50:22;9.00;99.90
16102;DHT22;56411;52.964;10.540;2023-04-06T09:52:51;9.10;99.90
16102;DHT22;56411;52.964;10.540;2023-04-06T09:55:23;9.20;99.90
16102;DHT22;56411;52.964;10.540;2023-04-06T09:57:57;9.30;99.90
16102;DHT22;56411;52.964;10.540;2023-04-06T10:00:28;9.40;99.90
16102;DHT22;56411;52.964;10.540;2023-04-06T10:03:01;9.50;99.90
16102;DHT22;56411;52.964;10.540;2023-04-06T10:05:37;9.60;99.90
16102;DHT22;56411;52.964;10.540;2023-04-06T10:08:06;9.70;99.90
16102;DHT22;56411;52.964;10.540;2023-04-06T10:10:36;9.80;99.90
16102;DHT22;56411;52.964;10.540;2023-04-06T10:13:04;9.90;99.90
16102;DHT22;56411;52.964;10.540;2023-04-06T10:15:33;10.00;99.90
16102;DHT22;56411;52.964;10.540;2023-04-06T10:18:02;10.00;99.90
16102;DHT22;56411;52.964;10.540;2023-04-06T10:20:35;10.10;99.90
16102;DHT22;56411;52.964;10.540;2023-04-06T10:23:09;10.10;99.90
16102;DHT22;56411;52.964;10.540;2023-04-06T10:25:52;10.30;99.90
16102;DHT22;56411;52.964;10.540;2023-04-06T10:28:20;10.40;99.90
16102;DHT22;56411;52.964;10.540;2023-04-06T10:30:56;10.40;99.90
16102;DHT22;56411;52.964;10.540;2023-04-06T10:33:24;10.40;99.90
16102;DHT22;56411;52.964;10.540;2023-04-06T10:35:52;10.50;99.90
16102;DHT22;56411;52.964;10.540;2023-04-06T10:38:19;10.70;99.90
16102;DHT22;56411;52.964;10.540;2023-04-06T10:40:48;10.80;99.90
16102;DHT22;56411;52.964;10.540;2023-04-06T10:43:19;10.90;99.90
16102;DHT22;56411;52.964;10.540;2023-04-06T10:45:55;11.00;99.90
16102;DHT22;56411;52.964;10.540;2023-04-06T10:48:23;11.20;99.90
16102;DHT22;56411;52.964;10.540;2023-04-06T10:50:52;11.30;99.90
16102;DHT22;56411;52.964;10.540;2023-04-06T10:53:24;11.30;99.90
16102;DHT22;56411;52.964;10.540;2023-04-06T10:55:52;11.50;99.90
16102;DHT22;56411;52.964;10.540;2023-04-06T10:58:20;11.80;99.90
16102;DHT22;56411;52.964;10.540;2023-04-06T11:00:48;12.10;99.90
16102;DHT22;56411;52.964;10.540;2023-04-06T11:03:18;12.50;99.90
16102;DHT22;56411;52.964;10.540;2023-04-06T11:05:46;12.90;99.90
16102;DHT22;56411;52.964;10.540;2023-04-06T11:08:24;13.30;99.90
16102;DHT22;56411;52.964;10.540;2023-04-06T11:10:52;13.50;99.90
16102;DHT22;56411;52.964;10.540;2023-04-06T11:13:19;14.10;99.90
16102;DHT22;56411;52.964;10.540;2023-04-06T11:15:47;14.60;99.90
16102;DHT22;56411;52.964;10.540;2023-04-06T11:18:19;15.10;99.60
16102;DHT22;56411;52.964;10.540;2023-04-06T11:20:49;15.90;98.00
16102;DHT22;56411;52.964;10.540;2023-04-06T11:23:23;16.30;95.30
16102;DHT22;56411;52.964;10.540;2023-04-06T11:25:51;16.80;94.00
16102;DHT22;56411;52.964;10.540;2023-04-06T11:28:19;17.50;94.60
16102;DHT22;56411;52.964;10.540;2023-04-06T11:30:47;17.70;91.70
16102;DHT22;56411;52.964;10.540;2023-04-06T11:33:22;17.80;90.50
16102;DHT22;56411;52.964;10.540;2023-04-06T11:35:49;17.60;90.10
16102;DHT22;56411;52.964;10.540;2023-04-06T11:38:18;17.40;86.90
16102;DHT22;56411;52.964;10.540;2023-04-06T11:40:46;17.80;88.50
16102;DHT22;56411;52.964;10.540;2023-04-06T11:43:14;18.20;88.40
16102;DHT22;56411;52.964;10.540;2023-04-06T11:45:42;18.70;86.20
16102;DHT22;56411;52.964;10.540;2023-04-06T11:48:18;19.00;85.80
16102;DHT22;56411;52.964;10.540;2023-04-06T11:50:55;19.70;84.90
16102;DHT22;56411;52.964;10.540;2023-04-06T11:53:23;20.70;85.20
16102;DHT22;56411;52.964;10.540;2023-04-06T11:55:53;20.70;80.90
16102;DHT22;56411;52.964;10.540;2023-04-06T11:58:20;21.10;77.90
16102;DHT22;56411;52.964;10.540;2023-04-06T12:00:48;20.30;76.90
16102;DHT22;56411;52.964;10.540;2023-04-06T12:03:15;20.70;78.30
16102;DHT22;56411;52.964;10.540;2023-04-06T12:05:43;21.50;76.00
16102;DHT22;56411;52.964;10.540;2023-04-06T12:08:13;21.60;73.00
16102;DHT22;56411;52.964;10.540;2023-04-06T12:10:40;21.80;73.40
16102;DHT22;56411;52.964;10.540;2023-04-06T12:13:07;21.70;70.90
16102;DHT22;56411;52.964;10.540;2023-04-06T12:15:35;21.30;74.50
16102;DHT22;56411;52.964;10.540;2023-04-06T12:18:02;21.00;71.20
16102;DHT22;56411;52.964;10.540;2023-04-06T12:20:30;21.00;72.70
16102;DHT22;56411;52.964;10.540;2023-04-06T12:22:58;21.00;72.20
16102;DHT22;56411;52.964;10.540;2023-04-06T12:25:27;22.00;71.90
16102;DHT22;56411;52.964;10.540;2023-04-06T12:27:54;22.00;69.50
16102;DHT22;56411;52.964;10.540;2023-04-06T12:30:22;20.20;68.90
16102;DHT22;56411;52.964;10.540;2023-04-06T12:32:50;19.30;72.90
16102;DHT22;56411;52.964;10.540;2023-04-06T12:35:18;19.60;74.30
16102;DHT22;56411;52.964;10.540;2023-04-06T12:37:46;20.20;71.60
16102;DHT22;56411;52.964;10.540;2023-04-06T12:40:14;19.00;70.00
16102;DHT22;56411;52.964;10.540;2023-04-06T12:42:43;18.00;74.90
16102;DHT22;56411;52.964;10.540;2023-04-06T12:45:12;19.30;73.10
16102;DHT22;56411;52.964;10.540;2023-04-06T12:47:39;19.90;72.70
16102;DHT22;56411;52.964;10.540;2023-04-06T12:50:07;21.20;71.70
16102;DHT22;56411;52.964;10.540;2023-04-06T12:52:35;21.80;69.40
16102;DHT22;56411;52.964;10.540;2023-04-06T12:55:02;21.80;68.20
16102;DHT22;56411;52.964;10.540;2023-04-06T12:57:30;22.10;69.50
16102;DHT22;56411;52.964;10.540;2023-04-06T12:59:59;23.00;69.10
16102;DHT22;56411;52.964;10.540;2023-04-06T13:02:27;23.60;66.50
16102;DHT22;56411;52.964;10.540;2023-04-06T13:04:54;23.50;65.20
16102;DHT22;56411;52.964;10.540;2023-04-06T13:07:22;23.30;66.70
16102;DHT22;56411;52.964;10.540;2023-04-06T13:09:49;22.80;64.70
16102;DHT22;56411;52.964;10.540;2023-04-06T13:12:19;23.00;65.50
16102;DHT22;56411;52.964;10.540;2023-04-06T13:14:47;23.60;63.40
16102;DHT22;56411;52.964;10.540;2023-04-06T13:17:19;23.00;62.70
16102;DHT22;56411;52.964;10.540;2023-04-06T13:19:48;22.90;65.30
16102;DHT22;56411;52.964;10.540;2023-04-06T13:22:15;23.50;62.60
16102;DHT22;56411;52.964;10.540;2023-04-06T13:24:43;21.30;64.60
16102;DHT22;56411;52.964;10.540;2023-04-06T13:27:10;21.80;63.90
16102;DHT22;56411;52.964;10.540;2023-04-06T13:29:37;21.90;64.70
16102;DHT22;56411;52.964;10.540;2023-04-06T13:32:05;22.20;63.20
16102;DHT22;56411;52.964;10.540;2023-04-06T13:34:34;22.40;62.20
16102;DHT22;56411;52.964;10.540;2023-04-06T13:37:02;21.60;63.00
16102;DHT22;56411;52.964;10.540;2023-04-06T13:39:29;21.40;65.40
16102;DHT22;56411;52.964;10.540;2023-04-06T13:41:57;22.10;61.70
16102;DHT22;56411;52.964;10.540;2023-04-06T13:44:24;22.00;60.40
16102;DHT22;56411;52.964;10.540;2023-04-06T13:46:51;22.40;62.90
16102;DHT22;56411;52.964;10.540;2023-04-06T13:49:19;22.80;62.60
16102;DHT22;56411;52.964;10.540;2023-04-06T13:51:48;23.60;63.90
16102;DHT22;56411;52.964;10.540;2023-04-06T13:54:15;23.90;63.00
16102;DHT22;56411;52.964;10.540;2023-04-06T13:56:45;23.90;60.90
16102;DHT22;56411;52.964;10.540;2023-04-06T13:59:14;23.60;63.40
16102;DHT22;56411;52.964;10.540;2023-04-06T14:01:41;24.60;62.20
16102;DHT22;56411;52.964;10.540;2023-04-06T14:04:08;25.40;60.70
16102;DHT22;56411;52.964;10.540;2023-04-06T14:06:36;25.40;58.90
16102;DHT22;56411;52.964;10.540;2023-04-06T14:09:05;25.30;59.20
16102;DHT22;56411;52.964;10.540;2023-04-06T14:11:32;25.70;59.00
16102;DHT22;56411;52.964;10.540;2023-04-06T14:13:59;26.00;57.70
16102;DHT22;56411;52.964;10.540;2023-04-06T14:16:26;25.70;59.00
16102;DHT22;56411;52.964;10.540;2023-04-06T14:18:53;25.40;60.00
16102;DHT22;56411;52.964;10.540;2023-04-06T14:21:23;25.90;58.60
16102;DHT22;56411;52.964;10.540;2023-04-06T14:23:50;26.10;57.90
16102;DHT22;56411;52.964;10.540;2023-04-06T14:26:19;25.30;58.10
16102;DHT22;56411;52.964;10.540;2023-04-06T14:28:47;24.90;57.60
16102;DHT22;56411;52.964;10.540;2023-04-06T14:31:15;24.50;58.40
16102;DHT22;56411;52.964;10.540;2023-04-06T14:33:42;23.90;57.40
16102;DHT22;56411;52.964;10.540;2023-04-06T14:36:09;24.40;58.50
16102;DHT22;56411;52.964;10.540;2023-04-06T14:38:37;24.20;59.30
16102;DHT22;56411;52.964;10.540;2023-04-06T14:41:05;24.00;58.50
16102;DHT22;56411;52.964;10.540;2023-04-06T14:43:33;24.40;58.90
16102;DHT22;56411;52.964;10.540;2023-04-06T14:46:01;24.90;57.70
16102;DHT22;56411;52.964;10.540;2023-04-06T14:48:28;25.10;57.60
16102;DHT22;56411;52.964;10.540;2023-04-06T14:50:56;25.10;57.30
16102;DHT22;56411;52.964;10.540;2023-04-06T14:53:24;24.80;57.50
16102;DHT22;56411;52.964;10.540;2023-04-06T14:55:53;24.70;57.60
16102;DHT22;56411;52.964;10.540;2023-04-06T14:58:22;23.90;58.10
16102;DHT22;56411;52.964;10.540;2023-04-06T15:00:55;23.50;58.20
16102;DHT22;56411;52.964;10.540;2023-04-06T15:03:23;23.00;59.90
16102;DHT22;56411;52.964;10.540;2023-04-06T15:05:51;23.50;59.10
16102;DHT22;56411;52.964;10.540;2023-04-06T15:08:18;23.80;58.90
16102;DHT22;56411;52.964;10.540;2023-04-06T15:10:46;24.10;58.90
16102;DHT22;56411;52.964;10.540;2023-04-06T15:13:14;23.90;58.20
16102;DHT22;56411;52.964;10.540;2023-04-06T15:15:41;23.60;58.70
16102;DHT22;56411;52.964;10.540;2023-04-06T15:18:11;23.40;59.20
16102;DHT22;56411;52.964;10.540;2023-04-06T15:20:38;23.20;59.30
16102;DHT22;56411;52.964;10.540;2023-04-06T15:23:06;23.10;58.40
16102;DHT22;56411;52.964;10.540;2023-04-06T15:25:33;23.00;59.20
16102;DHT22;56411;52.964;10.540;2023-04-06T15:28:00;23.60;59.50
16102;DHT22;56411;52.964;10.540;2023-04-06T15:30:27;24.10;58.20
16102;DHT22;56411;52.964;10.540;2023-04-06T15:32:56;24.60;58.10
16102;DHT22;56411;52.964;10.540;2023-04-06T15:35:25;24.40;57.50
16102;DHT22;56411;52.964;10.540;2023-04-06T15:37:53;23.50;58.20
16102;DHT22;56411;52.964;10.540;2023-04-06T15:40:20;22.70;58.60
16102;DHT22;56411;52.964;10.540;2023-04-06T15:42:47;22.60;59.80
16102;DHT22;56411;52.964;10.540;2023-04-06T15:45:14;23.00;58.60
16102;DHT22;56411;52.964;10.540;2023-04-06T15:47:43;23.20;58.50
16102;DHT22;56411;52.964;10.540;2023-04-06T15:50:12;23.40;57.80
16102;DHT22;56411;52.964;10.540;2023-04-06T15:52:44;23.60;58.20
16102;DHT22;56411;52.964;10.540;2023-04-06T15:55:14;23.40;58.70
16102;DHT22;56411;52.964;10.540;2023-04-06T15:57:41;22.80;58.70
16102;DHT22;56411;52.964;10.540;2023-04-06T16:00:10;22.50;59.30
16102;DHT22;56411;52.964;10.540;2023-04-06T16:02:37;22.40;59.70
16102;DHT22;56411;52.964;10.540;2023-04-06T16:05:05;22.60;59.00